createdAt,value
2022-08-05T00:01:29.428Z,22.06
2022-08-05T00:04:03.228Z,21.83
2022-08-05T00:06:33.445Z,21.54
2022-08-05T00:09:03.907Z,21.28
2022-08-05T00:11:34.865Z,21.26
2022-08-05T00:14:02.561Z,21.23
2022-08-05T00:16:52.511Z,21.27
2022-08-05T00:19:19.031Z,21.34
2022-08-05T00:21:48.392Z,21.47
2022-08-05T00:24:16.078Z,21.37
2022-08-05T00:26:51.796Z,21.16
2022-08-05T00:29:22.830Z,21.10
2022-08-05T00:32:11.120Z,21.23
2022-08-05T00:34:53.754Z,21.07
2022-08-05T00:37:25.521Z,20.83
2022-08-05T00:39:58.765Z,20.79
2022-08-05T00:42:37.083Z,20.83
2022-08-05T00:45:04.965Z,20.84
2022-08-05T00:47:56.381Z,20.70
2022-08-05T00:50:21.045Z,20.71
2022-08-05T00:52:46.992Z,20.53
2022-08-05T00:55:13.066Z,20.67
2022-08-05T00:57:57.854Z,20.59
2022-08-05T01:00:26.705Z,20.08
2022-08-05T01:02:52.796Z,19.98
2022-08-05T01:05:18.970Z,19.83
2022-08-05T01:08:39.925Z,19.68
2022-08-05T01:10:52.467Z,19.93
2022-08-05T01:13:58.511Z,20.04
2022-08-05T01:16:54.577Z,20.14
2022-08-05T01:20:00.740Z,20.03
2022-08-05T01:22:34.099Z,19.82
2022-08-05T01:25:40.387Z,19.74
2022-08-05T01:28:35.729Z,19.89
2022-08-05T01:31:06.631Z,19.99
2022-08-05T01:34:00.331Z,19.94
2022-08-05T01:36:32.429Z,19.84
2022-08-05T01:39:01.359Z,19.89
2022-08-05T01:41:31.852Z,20.03
2022-08-05T01:44:00.254Z,19.94
2022-08-05T01:46:42.903Z,19.86
2022-08-05T01:49:24.230Z,20.11
2022-08-05T01:51:56.197Z,20.24
2022-08-05T01:54:31.384Z,20.31
2022-08-05T01:58:10.809Z,20.31
2022-08-05T01:59:48.594Z,20.23
2022-08-05T02:02:17.116Z,20.13
2022-08-05T02:04:46.136Z,20.18
2022-08-05T02:07:22.423Z,20.27
2022-08-05T02:09:52.265Z,20.04
2022-08-05T02:12:27.063Z,19.76
2022-08-05T02:15:25.948Z,19.75
2022-08-05T02:18:30.887Z,19.69
2022-08-05T02:21:21.310Z,19.71
2022-08-05T02:23:51.406Z,19.77
2022-08-05T02:26:26.953Z,19.92
2022-08-05T02:28:55.364Z,20.00
2022-08-05T02:31:28.360Z,20.24
2022-08-05T02:34:00.385Z,20.31
2022-08-05T02:36:31.107Z,20.27
2022-08-05T02:38:57.934Z,20.22
2022-08-05T02:41:29.017Z,20.21
2022-08-05T02:44:12.130Z,20.31
2022-08-05T02:46:43.856Z,20.27
2022-08-05T02:49:19.999Z,20.32
2022-08-05T02:52:02.757Z,20.30
2022-08-05T02:54:35.981Z,20.19
2022-08-05T02:58:08.540Z,20.28
2022-08-05T02:59:53.604Z,20.27
2022-08-05T03:02:23.880Z,20.28
2022-08-05T03:04:56.564Z,20.34
2022-08-05T03:08:01.213Z,20.30
2022-08-05T03:10:09.782Z,20.23
2022-08-05T03:12:37.645Z,20.22
2022-08-05T03:15:06.824Z,20.41
2022-08-05T03:17:33.764Z,20.25
2022-08-05T03:20:08.790Z,20.30
2022-08-05T03:22:36.039Z,20.28
2022-08-05T03:25:31.839Z,20.24
2022-08-05T03:27:58.989Z,20.19
2022-08-05T03:30:33.371Z,19.86
2022-08-05T03:33:03.878Z,19.77
2022-08-05T03:35:40.981Z,19.90
2022-08-05T03:38:07.993Z,19.62
2022-08-05T03:40:33.842Z,19.54
2022-08-05T03:43:59.052Z,19.50
2022-08-05T03:45:57.216Z,19.51
2022-08-05T03:48:24.636Z,19.60
2022-08-05T03:50:59.241Z,19.55
2022-08-05T03:55:34.153Z,19.09
2022-08-05T03:56:43.533Z,19.29
2022-08-05T03:59:20.918Z,19.30
2022-08-05T04:01:50.143Z,18.99
2022-08-05T04:04:21.240Z,19.02
2022-08-05T04:07:02.696Z,19.27
2022-08-05T04:09:30.768Z,19.20
2022-08-05T04:12:03.169Z,19.10
2022-08-05T04:14:49.737Z,18.95
2022-08-05T04:17:16.375Z,18.91
2022-08-05T04:19:44.996Z,18.92
2022-08-05T04:22:12.357Z,18.86
2022-08-05T04:24:52.480Z,18.88
2022-08-05T04:27:19.234Z,18.60
2022-08-05T04:29:45.093Z,18.45
2022-08-05T04:32:11.099Z,18.27
2022-08-05T04:34:42.873Z,18.34
2022-08-05T04:37:09.694Z,18.45
2022-08-05T04:39:36.782Z,18.41
2022-08-05T04:42:03.757Z,18.21
2022-08-05T04:44:30.702Z,18.26
2022-08-05T04:47:00.124Z,18.29
2022-08-05T04:49:38.633Z,18.37
2022-08-05T04:52:22.343Z,18.68
2022-08-05T04:54:49.411Z,18.61
2022-08-05T04:57:15.451Z,18.62
2022-08-05T04:59:41.292Z,18.50
2022-08-05T05:02:36.230Z,18.43
2022-08-05T05:05:01.799Z,18.51
2022-08-05T05:07:29.409Z,18.53
2022-08-05T05:09:57.786Z,18.53
2022-08-05T05:12:23.625Z,18.65
2022-08-05T05:14:53.379Z,18.87
2022-08-05T05:17:23.862Z,18.97
2022-08-05T05:19:54.497Z,18.94
2022-08-05T05:22:24.382Z,19.13
2022-08-05T05:24:58.693Z,19.34
2022-08-05T05:27:45.198Z,19.45
2022-08-05T05:30:31.378Z,19.59
2022-08-05T05:33:03.756Z,19.73
2022-08-05T05:35:43.297Z,19.84
2022-08-05T05:38:13.568Z,19.87
2022-08-05T05:40:47.921Z,19.81
2022-08-05T05:43:54.546Z,19.87
2022-08-05T05:46:12.129Z,19.91
2022-08-05T05:48:41.129Z,20.01
2022-08-05T05:51:15.706Z,20.08
2022-08-05T05:53:54.334Z,20.14
2022-08-05T05:56:31.872Z,20.25
2022-08-05T05:59:03.080Z,20.45
2022-08-05T06:01:36.899Z,20.42
2022-08-05T06:04:14.522Z,20.50
2022-08-05T06:06:42.105Z,20.51
2022-08-05T06:09:09.255Z,20.49
2022-08-05T06:11:58.998Z,20.53
2022-08-05T06:14:27.995Z,20.37
2022-08-05T06:16:54.805Z,20.33
2022-08-05T06:19:33.975Z,20.25
2022-08-05T06:22:02.123Z,20.22
2022-08-05T06:24:27.902Z,20.11
2022-08-05T06:26:54.137Z,20.02
2022-08-05T06:29:25.364Z,20.08
2022-08-05T06:32:25.055Z,20.03
2022-08-05T06:34:56.863Z,20.13
2022-08-05T06:37:56.894Z,20.11
2022-08-05T06:40:13.707Z,20.04
2022-08-05T06:42:40.361Z,20.10
2022-08-05T06:45:08.951Z,20.15
2022-08-05T06:48:36.566Z,20.17
2022-08-05T06:50:21.885Z,20.16
2022-08-05T06:53:03.547Z,20.13
2022-08-05T06:55:36.422Z,20.09
2022-08-05T06:58:29.657Z,20.00
2022-08-05T07:00:48.766Z,19.79
2022-08-05T07:03:14.699Z,19.84
2022-08-05T07:05:43.023Z,19.91
2022-08-05T07:08:10.993Z,19.73
2022-08-05T07:10:37.507Z,19.81
2022-08-05T07:13:46.388Z,19.73
2022-08-05T07:18:00.822Z,19.94
2022-08-05T07:19:12.501Z,20.09
2022-08-05T07:22:01.074Z,20.00
2022-08-05T07:24:28.665Z,20.02
2022-08-05T07:26:56.052Z,20.07
2022-08-05T07:29:25.334Z,20.12
2022-08-05T07:32:07.821Z,19.92
2022-08-05T07:34:33.628Z,19.93
2022-08-05T07:36:59.458Z,20.08
2022-08-05T07:40:27.095Z,20.10
2022-08-05T07:42:15.183Z,20.11
2022-08-05T07:44:42.035Z,20.09
2022-08-05T07:47:14.780Z,20.16
2022-08-05T07:49:43.558Z,20.22
2022-08-05T07:52:21.118Z,20.13
2022-08-05T07:54:49.844Z,19.91
2022-08-05T07:57:22.787Z,20.01
2022-08-05T08:00:06.478Z,20.06
2022-08-05T08:03:15.186Z,19.58
2022-08-05T08:05:23.288Z,19.48
2022-08-05T08:07:59.775Z,19.85
2022-08-05T08:10:26.637Z,19.81
2022-08-05T08:12:52.420Z,19.83
2022-08-05T08:15:18.284Z,19.82
2022-08-05T08:18:09.514Z,19.49
2022-08-05T08:20:59.728Z,19.42
2022-08-05T08:24:03.562Z,19.38
2022-08-05T08:26:12.932Z,19.50
2022-08-05T08:28:59.563Z,19.58
2022-08-05T08:31:24.568Z,19.54
2022-08-05T08:33:53.152Z,19.64
2022-08-05T08:36:39.284Z,19.67
2022-08-05T08:39:06.253Z,19.36
2022-08-05T08:41:51.180Z,19.65
2022-08-05T08:45:20.709Z,19.57
2022-08-05T08:47:21.649Z,19.62
2022-08-05T08:50:30.605Z,19.73
2022-08-05T08:52:37.138Z,19.71
2022-08-05T08:55:04.069Z,19.60
2022-08-05T08:57:42.336Z,19.68
2022-08-05T09:00:24.388Z,19.68
2022-08-05T09:02:53.632Z,19.79
2022-08-05T09:05:38.221Z,19.82
2022-08-05T09:08:05.879Z,19.87
2022-08-05T09:10:35.866Z,19.73
2022-08-05T09:13:05.198Z,19.86
2022-08-05T09:15:31.465Z,19.88
2022-08-05T09:18:02.825Z,19.72
2022-08-05T09:20:37.450Z,19.54
2022-08-05T09:23:18.794Z,19.71
2022-08-05T09:26:06.745Z,19.41
2022-08-05T09:28:37.304Z,19.53
2022-08-05T09:31:18.321Z,19.39
2022-08-05T09:33:57.799Z,19.44
2022-08-05T09:36:27.803Z,19.26
2022-08-05T09:39:18.020Z,19.04
2022-08-05T09:42:04.344Z,19.20
2022-08-05T09:44:41.425Z,18.92
2022-08-05T09:47:14.118Z,18.81
2022-08-05T09:50:01.168Z,19.08
2022-08-05T09:52:28.571Z,18.85
2022-08-05T09:54:57.167Z,18.81
2022-08-05T09:57:47.114Z,18.87
2022-08-05T10:00:19.461Z,19.20
2022-08-05T10:02:48.473Z,19.26
2022-08-05T10:05:17.691Z,19.03
2022-08-05T10:08:34.632Z,19.16
2022-08-05T10:10:48.368Z,19.09
2022-08-05T10:13:43.903Z,19.13
2022-08-05T10:16:41.671Z,19.21
2022-08-05T10:19:23.522Z,19.11
2022-08-05T10:21:58.284Z,19.08
2022-08-05T10:24:25.009Z,19.18
2022-08-05T10:26:55.861Z,19.05
2022-08-05T10:30:42.021Z,18.71
2022-08-05T10:32:55.078Z,18.79
2022-08-05T10:35:01.636Z,18.77
2022-08-05T10:37:37.502Z,18.83
2022-08-05T10:40:32.393Z,18.89
2022-08-05T10:43:12.713Z,18.87
2022-08-05T10:45:40.141Z,18.56
2022-08-05T10:48:35.303Z,18.78
2022-08-05T10:51:22.489Z,18.97
2022-08-05T10:54:01.696Z,18.96
2022-08-05T10:56:45.476Z,18.99
2022-08-05T11:00:02.727Z,18.91
2022-08-05T11:02:34.815Z,18.93
2022-08-05T11:05:08.541Z,18.88
2022-08-05T11:08:01.430Z,18.84
2022-08-05T11:10:29.797Z,18.82
2022-08-05T11:12:57.121Z,18.48
2022-08-05T11:16:00.026Z,18.66
2022-08-05T11:18:30.085Z,18.72
2022-08-05T11:20:59.408Z,18.59
2022-08-05T11:23:33.387Z,18.56
2022-08-05T11:26:28.328Z,18.43
2022-08-05T11:29:11.383Z,18.33
2022-08-05T11:31:56.299Z,18.20
2022-08-05T11:34:36.630Z,18.22
2022-08-05T11:37:02.663Z,18.26
2022-08-05T11:39:49.880Z,18.40
2022-08-05T11:42:24.231Z,18.72
2022-08-05T11:45:04.379Z,18.77
2022-08-05T11:47:49.626Z,18.34
2022-08-05T11:50:17.129Z,18.35
2022-08-05T11:52:43.961Z,18.23
2022-08-05T11:55:12.843Z,18.45
2022-08-05T11:58:09.969Z,18.55
2022-08-05T12:00:31.146Z,18.84
2022-08-05T12:02:57.221Z,18.69
2022-08-05T12:05:36.353Z,18.29
2022-08-05T12:08:10.939Z,18.82
2022-08-05T12:10:45.055Z,19.07
2022-08-05T12:13:15.624Z,19.30
2022-08-05T12:15:44.544Z,19.46
2022-08-05T12:18:12.062Z,19.63
2022-08-05T12:20:38.697Z,19.98
2022-08-05T12:23:09.227Z,20.37
2022-08-05T12:25:56.709Z,20.79
2022-08-05T12:28:49.348Z,20.92
2022-08-05T12:31:23.696Z,21.34
2022-08-05T12:34:05.356Z,21.26
2022-08-05T12:36:32.450Z,21.28
2022-08-05T12:38:59.140Z,21.73
2022-08-05T12:41:34.472Z,21.88
2022-08-05T12:44:03.398Z,22.10
2022-08-05T12:46:31.773Z,22.18
2022-08-05T12:49:13.846Z,22.11
2022-08-05T12:52:13.457Z,22.41
2022-08-05T12:54:31.572Z,22.61
2022-08-05T12:56:59.754Z,22.75
2022-08-05T13:00:08.946Z,22.91
2022-08-05T13:02:27.528Z,22.88
2022-08-05T13:04:56.651Z,22.79
2022-08-05T13:07:56.154Z,22.66
2022-08-05T13:10:12.374Z,22.57
2022-08-05T13:12:57.265Z,22.79
2022-08-05T13:15:41.887Z,23.08
2022-08-05T13:18:19.426Z,23.48
2022-08-05T13:20:45.881Z,23.59
2022-08-05T13:23:11.870Z,23.57
2022-08-05T13:25:52.032Z,23.51
2022-08-05T13:28:23.535Z,23.43
2022-08-05T13:30:51.190Z,23.41
2022-08-05T13:34:22.896Z,23.99
2022-08-05T13:36:05.075Z,23.74
2022-08-05T13:38:36.093Z,24.17
2022-08-05T13:41:04.630Z,23.89
2022-08-05T13:43:44.130Z,23.72
2022-08-05T13:46:30.616Z,23.97
2022-08-05T13:49:04.298Z,23.52
2022-08-05T13:51:36.390Z,23.55
2022-08-05T13:54:11.610Z,23.81
2022-08-05T13:56:39.268Z,23.51
2022-08-05T13:59:20.506Z,24.01
2022-08-05T14:01:57.608Z,24.32
2022-08-05T14:04:50.102Z,24.56
2022-08-05T14:07:25.727Z,24.75
2022-08-05T14:10:19.116Z,24.83
2022-08-05T14:12:54.526Z,25.22
2022-08-05T14:16:04.580Z,25.12
2022-08-05T14:18:06.510Z,25.06
2022-08-05T14:20:41.206Z,25.21
2022-08-05T14:23:12.888Z,24.83
2022-08-05T14:25:45.161Z,24.11
2022-08-05T14:28:15.970Z,23.34
2022-08-05T14:30:53.605Z,22.94
2022-08-05T14:33:22.670Z,22.84
2022-08-05T14:35:50.286Z,22.63
2022-08-05T14:38:32.815Z,22.14
2022-08-05T14:41:05.735Z,21.99
2022-08-05T14:43:57.619Z,21.82
2022-08-05T14:46:20.417Z,21.96
2022-08-05T14:48:49.320Z,22.64
2022-08-05T14:51:17.551Z,23.02
2022-08-05T14:53:44.845Z,22.81
2022-08-05T14:56:11.359Z,22.92
2022-08-05T14:58:38.364Z,23.00
2022-08-05T15:01:15.568Z,23.14
2022-08-05T15:03:42.070Z,22.85
2022-08-05T15:06:15.547Z,22.99
2022-08-05T15:08:59.439Z,23.37
2022-08-05T15:11:51.862Z,23.59
2022-08-05T15:14:33.941Z,23.69
2022-08-05T15:17:04.145Z,23.27
2022-08-05T15:19:31.428Z,23.18
2022-08-05T15:22:00.031Z,22.89
2022-08-05T15:24:27.123Z,22.68
2022-08-05T15:26:52.973Z,22.12
2022-08-05T15:29:21.762Z,21.67
2022-08-05T15:31:52.873Z,21.74
2022-08-05T15:34:32.443Z,21.73
2022-08-05T15:37:06.929Z,21.56
2022-08-05T15:41:01.187Z,21.12
2022-08-05T15:42:54.521Z,21.01
2022-08-05T15:45:13.476Z,21.13
2022-08-05T15:47:43.416Z,21.09
2022-08-05T15:50:15.333Z,21.18
2022-08-05T15:52:54.164Z,21.17
2022-08-05T15:55:24.665Z,21.36
2022-08-05T15:57:51.375Z,21.45
2022-08-05T16:00:26.311Z,21.32
2022-08-05T16:02:59.006Z,21.51
2022-08-05T16:05:28.472Z,21.56
2022-08-05T16:07:54.531Z,21.71
2022-08-05T16:10:25.449Z,21.67
2022-08-05T16:12:53.008Z,21.66
2022-08-05T16:15:22.325Z,21.55
2022-08-05T16:17:57.795Z,21.53
2022-08-05T16:20:24.806Z,21.55
2022-08-05T16:22:50.621Z,21.42
2022-08-05T16:25:16.456Z,21.50
2022-08-05T16:27:59.680Z,21.82
2022-08-05T16:30:29.008Z,21.92
2022-08-05T16:32:55.556Z,21.84
2022-08-05T16:35:27.784Z,21.80
2022-08-05T16:38:03.610Z,22.29
2022-08-05T16:40:39.938Z,22.08
2022-08-05T16:43:05.778Z,22.11
2022-08-05T16:46:05.897Z,21.82
2022-08-05T16:48:25.461Z,21.73
2022-08-05T16:50:52.640Z,22.33
2022-08-05T16:53:23.343Z,22.54
2022-08-05T16:55:58.636Z,22.98
2022-08-05T16:58:24.467Z,22.87
2022-08-05T17:00:51.279Z,22.80
2022-08-05T17:03:20.587Z,22.14
2022-08-05T17:05:51.717Z,21.49
2022-08-05T17:08:36.333Z,21.43
2022-08-05T17:11:05.814Z,21.21
2022-08-05T17:13:37.200Z,21.32
2022-08-05T17:16:28.191Z,21.49
2022-08-05T17:18:53.520Z,21.66
2022-08-05T17:21:20.302Z,21.93
2022-08-05T17:24:05.035Z,21.97
2022-08-05T17:26:35.765Z,21.69
2022-08-05T17:29:04.351Z,21.92
2022-08-05T17:31:56.558Z,22.20
2022-08-05T17:34:21.500Z,22.34
2022-08-05T17:36:56.199Z,22.40
2022-08-05T17:39:23.751Z,22.48
2022-08-05T17:42:19.228Z,22.21
2022-08-05T17:44:36.625Z,22.07
2022-08-05T17:47:02.612Z,22.11
2022-08-05T17:49:28.485Z,22.12
2022-08-05T17:52:14.871Z,21.63
2022-08-05T17:54:41.321Z,21.19
2022-08-05T17:57:07.229Z,21.22
2022-08-05T17:59:40.055Z,21.08
2022-08-05T18:02:10.750Z,21.19
2022-08-05T18:04:51.339Z,20.89
2022-08-05T18:07:20.936Z,20.67
2022-08-05T18:10:00.414Z,20.61
2022-08-05T18:12:26.999Z,20.56
2022-08-05T18:14:54.683Z,20.59
2022-08-05T18:18:00.482Z,20.32
2022-08-05T18:20:07.101Z,20.39
2022-08-05T18:22:54.246Z,20.51
2022-08-05T18:25:20.706Z,20.35
2022-08-05T18:27:52.219Z,20.23
2022-08-05T18:30:18.875Z,20.23
2022-08-05T18:32:53.671Z,20.31
2022-08-05T18:35:28.291Z,20.02
2022-08-05T18:38:12.687Z,20.06
2022-08-05T18:41:55.078Z,19.95
2022-08-05T18:43:31.516Z,20.01
2022-08-05T18:46:06.031Z,19.92
2022-08-05T18:48:36.069Z,19.81
2022-08-05T18:52:03.148Z,19.85
2022-08-05T18:54:12.291Z,19.80
2022-08-05T18:56:39.031Z,19.54
2022-08-05T18:59:43.382Z,19.41
2022-08-05T19:01:56.946Z,19.17
2022-08-05T19:04:25.091Z,19.07
2022-08-05T19:06:51.601Z,19.30
2022-08-05T19:09:19.819Z,19.29
2022-08-05T19:11:59.533Z,19.17
2022-08-05T19:14:44.465Z,19.12
2022-08-05T19:17:13.776Z,19.03
2022-08-05T19:19:44.069Z,19.26
2022-08-05T19:22:13.079Z,19.22
2022-08-05T19:24:54.423Z,18.98
2022-08-05T19:27:22.183Z,18.83
2022-08-05T19:29:49.252Z,18.92
2022-08-05T19:32:15.836Z,18.84
2022-08-05T19:34:41.865Z,18.86
2022-08-05T19:37:09.272Z,18.77
2022-08-05T19:39:45.450Z,18.71
2022-08-05T19:42:17.727Z,18.56
2022-08-05T19:44:45.065Z,18.41
2022-08-05T19:47:15.092Z,18.46
2022-08-05T19:49:42.041Z,18.29
2022-08-05T19:52:31.172Z,18.08
2022-08-05T19:54:54.144Z,18.02
2022-08-05T19:57:47.428Z,18.00
2022-08-05T20:00:07.195Z,17.79
2022-08-05T20:02:33.214Z,17.79
2022-08-05T20:05:04.700Z,17.72
2022-08-05T20:07:46.591Z,17.61
2022-08-05T20:10:14.479Z,17.75
2022-08-05T20:12:48.248Z,17.62
2022-08-05T20:15:48.678Z,17.57
2022-08-05T20:18:10.569Z,17.63
2022-08-05T20:20:55.110Z,17.75
2022-08-05T20:23:22.064Z,17.69
2022-08-05T20:25:47.896Z,17.50
2022-08-05T20:28:15.108Z,17.50
2022-08-05T20:30:41.619Z,17.45
2022-08-05T20:33:07.967Z,17.43
2022-08-05T20:35:33.797Z,17.30
2022-08-05T20:38:07.606Z,17.45
2022-08-05T20:40:34.835Z,17.52
2022-08-05T20:43:04.257Z,17.42
2022-08-05T20:45:56.061Z,17.48
2022-08-05T20:48:17.934Z,17.63
2022-08-05T20:50:45.527Z,17.55
2022-08-05T20:53:16.001Z,17.51
2022-08-05T20:56:08.621Z,17.49
2022-08-05T20:58:35.250Z,17.42
2022-08-05T21:01:01.118Z,17.44
2022-08-05T21:03:30.609Z,17.37
2022-08-05T21:06:00.966Z,17.35
2022-08-05T21:08:36.019Z,17.50
2022-08-05T21:11:12.550Z,17.57
2022-08-05T21:13:56.410Z,17.57
2022-08-05T21:16:30.109Z,17.47
2022-08-05T21:19:00.154Z,17.42
2022-08-05T21:21:43.723Z,17.51
2022-08-05T21:24:13.208Z,17.46
2022-08-05T21:26:40.050Z,17.26
2022-08-05T21:29:07.728Z,17.39
2022-08-05T21:31:41.419Z,17.06
2022-08-05T21:34:07.898Z,17.01
2022-08-05T21:36:33.746Z,16.71
2022-08-05T21:39:00.211Z,16.74
2022-08-05T21:41:26.177Z,16.57
2022-08-05T21:44:01.800Z,16.65
2022-08-05T21:46:32.230Z,16.58
2022-08-05T21:49:00.833Z,16.72
2022-08-05T21:52:22.619Z,16.60
2022-08-05T21:54:12.648Z,16.63
2022-08-05T21:56:44.553Z,16.64
2022-08-05T21:59:22.614Z,16.75
2022-08-05T22:01:50.958Z,16.78
2022-08-05T22:04:21.319Z,16.89
2022-08-05T22:06:51.629Z,16.75
2022-08-05T22:09:21.174Z,16.93
2022-08-05T22:11:48.216Z,16.91
2022-08-05T22:14:33.526Z,16.69
2022-08-05T22:17:05.156Z,16.68
2022-08-05T22:20:03.575Z,16.55
2022-08-05T22:22:26.776Z,16.61
2022-08-05T22:25:21.586Z,16.52
2022-08-05T22:28:11.152Z,16.18
2022-08-05T22:30:56.187Z,16.21
2022-08-05T22:33:55.352Z,16.28
2022-08-05T22:36:14.292Z,16.17
2022-08-05T22:38:40.902Z,16.14
2022-08-05T22:41:09.815Z,16.21
2022-08-05T22:43:38.219Z,16.12
2022-08-05T22:46:13.352Z,16.14
2022-08-05T22:48:40.274Z,16.35
2022-08-05T22:51:07.470Z,16.26
2022-08-05T22:53:35.781Z,16.16
2022-08-05T22:56:01.961Z,16.05
2022-08-05T22:58:28.221Z,16.32
2022-08-05T23:00:54.602Z,16.33
2022-08-05T23:03:22.964Z,16.20
2022-08-05T23:06:08.614Z,15.85
2022-08-05T23:08:35.915Z,15.89
2022-08-05T23:11:01.920Z,15.71
2022-08-05T23:13:27.773Z,15.71
2022-08-05T23:15:55.717Z,15.77
2022-08-05T23:18:22.908Z,16.08
2022-08-05T23:20:48.912Z,16.03
2022-08-05T23:23:14.742Z,15.97
2022-08-05T23:25:51.503Z,15.82
2022-08-05T23:28:20.878Z,16.00
2022-08-05T23:30:53.568Z,16.09
2022-08-05T23:33:25.589Z,16.02
2022-08-05T23:35:55.110Z,15.79
2022-08-05T23:38:23.048Z,15.82
2022-08-05T23:40:50.590Z,15.63
2022-08-05T23:43:25.814Z,15.40
2022-08-05T23:46:04.857Z,15.71
2022-08-05T23:48:45.994Z,15.63
2022-08-05T23:51:27.566Z,15.50
2022-08-05T23:53:54.929Z,15.47
2022-08-05T23:56:27.620Z,15.34
2022-08-05T23:58:53.536Z,15.35
